sensor_id;sensor_type;location;lat;lon;timestamp;P1;durP1;ratioP1;P2;durP2;ratioP2
12780;SDS011;6454;43.304;24.344;2024-03-06T00:00:12;35.80;;;13.55;;
12780;SDS011;6454;43.304;24.344;2024-03-06T00:02:38;37.97;;;13.13;;
12780;SDS011;6454;43.304;24.344;2024-03-06T00:08:25;31.48;;;12.70;;
12780;SDS011;6454;43.304;24.344;2024-03-06T00:10:51;35.65;;;13.05;;
12780;SDS011;6454;43.304;24.344;2024-03-06T00:13:17;40.03;;;14.20;;
12780;SDS011;6454;43.304;24.344;2024-03-06T00:15:42;36.30;;;13.40;;
12780;SDS011;6454;43.304;24.344;2024-03-06T00:18:08;35.28;;;13.70;;
12780;SDS011;6454;43.304;24.344;2024-03-06T00:20:35;35.92;;;12.63;;
12780;SDS011;6454;43.304;24.344;2024-03-06T00:23:00;32.78;;;12.63;;
12780;SDS011;6454;43.304;24.344;2024-03-06T00:25:26;35.28;;;13.82;;
12780;SDS011;6454;43.304;24.344;2024-03-06T00:27:51;32.38;;;12.88;;
12780;SDS011;6454;43.304;24.344;2024-03-06T00:30:17;33.10;;;14.45;;
12780;SDS011;6454;43.304;24.344;2024-03-06T00:32:43;29.92;;;11.88;;
12780;SDS011;6454;43.304;24.344;2024-03-06T00:35:08;27.05;;;11.60;;
12780;SDS011;6454;43.304;24.344;2024-03-06T00:37:34;29.95;;;11.82;;
12780;SDS011;6454;43.304;24.344;2024-03-06T00:39:59;28.38;;;12.18;;
12780;SDS011;6454;43.304;24.344;2024-03-06T00:42:24;27.27;;;11.35;;
12780;SDS011;6454;43.304;24.344;2024-03-06T00:44:50;25.90;;;11.50;;
12780;SDS011;6454;43.304;24.344;2024-03-06T00:47:16;28.60;;;11.43;;
12780;SDS011;6454;43.304;24.344;2024-03-06T00:49:41;29.70;;;12.00;;
12780;SDS011;6454;43.304;24.344;2024-03-06T00:52:07;25.92;;;11.68;;
12780;SDS011;6454;43.304;24.344;2024-03-06T00:54:33;28.00;;;11.77;;
12780;SDS011;6454;43.304;24.344;2024-03-06T00:56:59;28.08;;;12.77;;
12780;SDS011;6454;43.304;24.344;2024-03-06T00:59:24;30.38;;;12.60;;
12780;SDS011;6454;43.304;24.344;2024-03-06T01:01:50;25.00;;;12.15;;
12780;SDS011;6454;43.304;24.344;2024-03-06T01:04:15;31.55;;;12.10;;
12780;SDS011;6454;43.304;24.344;2024-03-06T01:06:41;26.48;;;12.68;;
12780;SDS011;6454;43.304;24.344;2024-03-06T01:09:06;29.40;;;11.68;;
12780;SDS011;6454;43.304;24.344;2024-03-06T01:11:32;27.45;;;11.20;;
12780;SDS011;6454;43.304;24.344;2024-03-06T01:13:57;25.27;;;10.88;;
12780;SDS011;6454;43.304;24.344;2024-03-06T01:16:24;22.80;;;10.50;;
12780;SDS011;6454;43.304;24.344;2024-03-06T01:18:51;26.83;;;11.50;;
12780;SDS011;6454;43.304;24.344;2024-03-06T01:21:18;28.52;;;11.32;;
12780;SDS011;6454;43.304;24.344;2024-03-06T01:23:43;33.42;;;12.68;;
12780;SDS011;6454;43.304;24.344;2024-03-06T01:26:10;32.92;;;12.50;;
12780;SDS011;6454;43.304;24.344;2024-03-06T01:28:36;26.55;;;12.13;;
12780;SDS011;6454;43.304;24.344;2024-03-06T01:31:02;31.52;;;12.23;;
12780;SDS011;6454;43.304;24.344;2024-03-06T01:33:27;28.35;;;13.23;;
12780;SDS011;6454;43.304;24.344;2024-03-06T01:35:53;27.35;;;12.32;;
12780;SDS011;6454;43.304;24.344;2024-03-06T01:38:18;34.17;;;12.85;;
12780;SDS011;6454;43.304;24.344;2024-03-06T01:40:44;27.35;;;11.57;;
12780;SDS011;6454;43.304;24.344;2024-03-06T01:43:19;30.15;;;11.20;;
12780;SDS011;6454;43.304;24.344;2024-03-06T01:45:47;23.38;;;10.07;;
12780;SDS011;6454;43.304;24.344;2024-03-06T01:48:13;23.75;;;9.85;;
12780;SDS011;6454;43.304;24.344;2024-03-06T01:50:39;27.98;;;11.95;;
12780;SDS011;6454;43.304;24.344;2024-03-06T01:53:05;30.95;;;12.82;;
12780;SDS011;6454;43.304;24.344;2024-03-06T01:55:31;29.95;;;11.63;;
12780;SDS011;6454;43.304;24.344;2024-03-06T01:57:57;31.52;;;11.85;;
12780;SDS011;6454;43.304;24.344;2024-03-06T02:00:22;29.55;;;12.00;;
12780;SDS011;6454;43.304;24.344;2024-03-06T02:02:48;33.10;;;11.93;;
12780;SDS011;6454;43.304;24.344;2024-03-06T02:05:14;32.72;;;12.93;;
12780;SDS011;6454;43.304;24.344;2024-03-06T02:07:40;34.67;;;12.88;;
12780;SDS011;6454;43.304;24.344;2024-03-06T02:10:09;27.83;;;11.50;;
12780;SDS011;6454;43.304;24.344;2024-03-06T02:12:37;30.17;;;12.15;;
12780;SDS011;6454;43.304;24.344;2024-03-06T02:15:03;24.27;;;11.30;;
12780;SDS011;6454;43.304;24.344;2024-03-06T02:17:29;23.80;;;11.13;;
12780;SDS011;6454;43.304;24.344;2024-03-06T02:19:55;28.58;;;12.27;;
12780;SDS011;6454;43.304;24.344;2024-03-06T02:22:23;26.92;;;10.73;;
12780;SDS011;6454;43.304;24.344;2024-03-06T02:24:48;28.15;;;12.30;;
12780;SDS011;6454;43.304;24.344;2024-03-06T02:27:14;31.00;;;12.68;;
12780;SDS011;6454;43.304;24.344;2024-03-06T02:29:41;33.88;;;11.48;;
12780;SDS011;6454;43.304;24.344;2024-03-06T02:32:06;27.65;;;12.02;;
12780;SDS011;6454;43.304;24.344;2024-03-06T02:34:32;31.65;;;12.75;;
12780;SDS011;6454;43.304;24.344;2024-03-06T02:36:57;31.20;;;12.70;;
12780;SDS011;6454;43.304;24.344;2024-03-06T02:39:23;30.15;;;13.48;;
12780;SDS011;6454;43.304;24.344;2024-03-06T02:41:48;27.45;;;12.38;;
12780;SDS011;6454;43.304;24.344;2024-03-06T02:44:14;33.33;;;14.38;;
12780;SDS011;6454;43.304;24.344;2024-03-06T02:46:40;30.88;;;13.55;;
12780;SDS011;6454;43.304;24.344;2024-03-06T02:49:06;34.10;;;13.48;;
12780;SDS011;6454;43.304;24.344;2024-03-06T02:51:31;33.90;;;13.13;;
12780;SDS011;6454;43.304;24.344;2024-03-06T02:53:57;36.60;;;14.13;;
12780;SDS011;6454;43.304;24.344;2024-03-06T02:56:22;35.15;;;13.60;;
12780;SDS011;6454;43.304;24.344;2024-03-06T02:58:48;35.55;;;14.48;;
12780;SDS011;6454;43.304;24.344;2024-03-06T03:01:14;39.45;;;16.73;;
12780;SDS011;6454;43.304;24.344;2024-03-06T03:03:40;37.95;;;15.60;;
12780;SDS011;6454;43.304;24.344;2024-03-06T03:06:07;34.22;;;14.68;;
12780;SDS011;6454;43.304;24.344;2024-03-06T03:08:32;37.72;;;16.13;;
12780;SDS011;6454;43.304;24.344;2024-03-06T03:10:58;35.10;;;14.55;;
12780;SDS011;6454;43.304;24.344;2024-03-06T03:13:23;32.72;;;14.85;;
12780;SDS011;6454;43.304;24.344;2024-03-06T03:15:49;33.80;;;15.43;;
12780;SDS011;6454;43.304;24.344;2024-03-06T03:18:14;32.33;;;13.50;;
12780;SDS011;6454;43.304;24.344;2024-03-06T03:20:44;32.65;;;13.43;;
12780;SDS011;6454;43.304;24.344;2024-03-06T03:23:09;32.70;;;13.63;;
12780;SDS011;6454;43.304;24.344;2024-03-06T03:25:37;30.25;;;12.80;;
12780;SDS011;6454;43.304;24.344;2024-03-06T03:28:03;30.27;;;13.18;;
12780;SDS011;6454;43.304;24.344;2024-03-06T03:30:29;30.45;;;12.43;;
12780;SDS011;6454;43.304;24.344;2024-03-06T03:32:54;28.20;;;13.13;;
12780;SDS011;6454;43.304;24.344;2024-03-06T03:35:20;29.23;;;13.60;;
12780;SDS011;6454;43.304;24.344;2024-03-06T03:37:50;33.35;;;13.07;;
12780;SDS011;6454;43.304;24.344;2024-03-06T03:40:17;35.13;;;13.88;;
12780;SDS011;6454;43.304;24.344;2024-03-06T03:42:43;32.63;;;12.63;;
12780;SDS011;6454;43.304;24.344;2024-03-06T03:45:09;31.20;;;13.23;;
12780;SDS011;6454;43.304;24.344;2024-03-06T03:47:34;26.13;;;12.82;;
12780;SDS011;6454;43.304;24.344;2024-03-06T03:50:00;28.38;;;13.80;;
12780;SDS011;6454;43.304;24.344;2024-03-06T03:52:25;26.00;;;12.20;;
12780;SDS011;6454;43.304;24.344;2024-03-06T03:54:51;23.92;;;11.27;;
12780;SDS011;6454;43.304;24.344;2024-03-06T03:57:16;27.30;;;12.38;;
12780;SDS011;6454;43.304;24.344;2024-03-06T03:59:42;29.88;;;12.80;;
12780;SDS011;6454;43.304;24.344;2024-03-06T04:02:08;31.67;;;12.95;;
12780;SDS011;6454;43.304;24.344;2024-03-06T04:04:33;34.10;;;13.85;;
12780;SDS011;6454;43.304;24.344;2024-03-06T04:06:59;28.95;;;11.85;;
12780;SDS011;6454;43.304;24.344;2024-03-06T04:09:27;30.58;;;13.60;;
12780;SDS011;6454;43.304;24.344;2024-03-06T04:11:52;32.60;;;11.63;;
12780;SDS011;6454;43.304;24.344;2024-03-06T04:14:18;30.92;;;12.73;;
12780;SDS011;6454;43.304;24.344;2024-03-06T04:16:45;31.02;;;13.80;;
12780;SDS011;6454;43.304;24.344;2024-03-06T04:19:11;37.58;;;16.20;;
12780;SDS011;6454;43.304;24.344;2024-03-06T04:21:42;38.45;;;17.60;;
12780;SDS011;6454;43.304;24.344;2024-03-06T04:24:08;45.35;;;21.92;;
12780;SDS011;6454;43.304;24.344;2024-03-06T04:26:34;48.28;;;21.00;;
12780;SDS011;6454;43.304;24.344;2024-03-06T04:29:00;37.60;;;17.55;;
12780;SDS011;6454;43.304;24.344;2024-03-06T04:31:25;39.30;;;16.52;;
12780;SDS011;6454;43.304;24.344;2024-03-06T04:33:51;36.78;;;15.15;;
12780;SDS011;6454;43.304;24.344;2024-03-06T04:36:17;32.28;;;14.32;;
12780;SDS011;6454;43.304;24.344;2024-03-06T04:38:42;30.40;;;13.95;;
12780;SDS011;6454;43.304;24.344;2024-03-06T04:41:08;33.95;;;14.23;;
12780;SDS011;6454;43.304;24.344;2024-03-06T04:43:33;32.78;;;13.52;;
12780;SDS011;6454;43.304;24.344;2024-03-06T04:46:00;34.88;;;14.40;;
12780;SDS011;6454;43.304;24.344;2024-03-06T04:48:25;32.28;;;14.32;;
12780;SDS011;6454;43.304;24.344;2024-03-06T04:50:51;32.78;;;12.82;;
12780;SDS011;6454;43.304;24.344;2024-03-06T04:53:16;29.88;;;12.93;;
12780;SDS011;6454;43.304;24.344;2024-03-06T04:55:42;36.92;;;13.35;;
12780;SDS011;6454;43.304;24.344;2024-03-06T04:58:07;29.45;;;13.45;;
12780;SDS011;6454;43.304;24.344;2024-03-06T05:00:33;33.45;;;14.02;;
12780;SDS011;6454;43.304;24.344;2024-03-06T05:02:59;30.55;;;13.38;;
12780;SDS011;6454;43.304;24.344;2024-03-06T05:05:25;31.85;;;13.13;;
12780;SDS011;6454;43.304;24.344;2024-03-06T05:07:50;28.92;;;13.02;;
12780;SDS011;6454;43.304;24.344;2024-03-06T05:10:16;28.67;;;12.48;;
12780;SDS011;6454;43.304;24.344;2024-03-06T05:12:42;28.05;;;13.20;;
12780;SDS011;6454;43.304;24.344;2024-03-06T05:15:07;28.48;;;13.65;;
12780;SDS011;6454;43.304;24.344;2024-03-06T05:17:34;29.33;;;13.52;;
12780;SDS011;6454;43.304;24.344;2024-03-06T05:19:59;34.92;;;14.90;;
12780;SDS011;6454;43.304;24.344;2024-03-06T05:22:25;36.95;;;15.98;;
12780;SDS011;6454;43.304;24.344;2024-03-06T05:24:51;44.85;;;19.85;;
12780;SDS011;6454;43.304;24.344;2024-03-06T05:27:17;42.72;;;18.73;;
12780;SDS011;6454;43.304;24.344;2024-03-06T05:29:43;45.35;;;20.27;;
12780;SDS011;6454;43.304;24.344;2024-03-06T05:32:09;45.35;;;19.25;;
12780;SDS011;6454;43.304;24.344;2024-03-06T05:34:35;44.50;;;19.48;;
12780;SDS011;6454;43.304;24.344;2024-03-06T05:37:01;43.17;;;19.70;;
12780;SDS011;6454;43.304;24.344;2024-03-06T05:39:29;37.85;;;17.63;;
12780;SDS011;6454;43.304;24.344;2024-03-06T05:41:54;39.92;;;16.95;;
12780;SDS011;6454;43.304;24.344;2024-03-06T05:44:20;39.30;;;17.45;;
12780;SDS011;6454;43.304;24.344;2024-03-06T05:46:46;50.58;;;20.73;;
12780;SDS011;6454;43.304;24.344;2024-03-06T05:49:12;39.90;;;17.77;;
12780;SDS011;6454;43.304;24.344;2024-03-06T05:51:39;45.20;;;18.63;;
12780;SDS011;6454;43.304;24.344;2024-03-06T05:54:04;41.67;;;15.93;;
12780;SDS011;6454;43.304;24.344;2024-03-06T05:56:33;39.22;;;16.38;;
12780;SDS011;6454;43.304;24.344;2024-03-06T05:58:59;37.90;;;15.90;;
12780;SDS011;6454;43.304;24.344;2024-03-06T06:01:29;40.22;;;15.20;;
12780;SDS011;6454;43.304;24.344;2024-03-06T06:03:57;37.42;;;15.65;;
12780;SDS011;6454;43.304;24.344;2024-03-06T06:06:22;39.00;;;15.05;;
12780;SDS011;6454;43.304;24.344;2024-03-06T06:08:48;39.85;;;15.38;;
12780;SDS011;6454;43.304;24.344;2024-03-06T06:11:13;37.83;;;15.07;;
12780;SDS011;6454;43.304;24.344;2024-03-06T06:13:39;41.25;;;15.82;;
12780;SDS011;6454;43.304;24.344;2024-03-06T06:16:05;36.78;;;14.43;;
12780;SDS011;6454;43.304;24.344;2024-03-06T06:18:32;35.00;;;14.45;;
12780;SDS011;6454;43.304;24.344;2024-03-06T06:20:57;34.08;;;14.68;;
12780;SDS011;6454;43.304;24.344;2024-03-06T06:23:23;31.88;;;13.88;;
12780;SDS011;6454;43.304;24.344;2024-03-06T06:25:49;41.42;;;14.85;;
12780;SDS011;6454;43.304;24.344;2024-03-06T06:28:14;34.40;;;15.60;;
12780;SDS011;6454;43.304;24.344;2024-03-06T06:30:40;34.05;;;14.25;;
12780;SDS011;6454;43.304;24.344;2024-03-06T06:33:06;37.17;;;13.65;;
12780;SDS011;6454;43.304;24.344;2024-03-06T06:35:32;32.78;;;14.30;;
12780;SDS011;6454;43.304;24.344;2024-03-06T06:37:59;31.98;;;13.70;;
12780;SDS011;6454;43.304;24.344;2024-03-06T06:40:25;37.10;;;15.65;;
12780;SDS011;6454;43.304;24.344;2024-03-06T06:42:50;39.47;;;13.70;;
12780;SDS011;6454;43.304;24.344;2024-03-06T06:45:16;34.47;;;13.98;;
12780;SDS011;6454;43.304;24.344;2024-03-06T06:47:42;32.55;;;14.52;;
12780;SDS011;6454;43.304;24.344;2024-03-06T06:50:09;31.20;;;13.20;;
12780;SDS011;6454;43.304;24.344;2024-03-06T06:52:34;30.65;;;13.32;;
12780;SDS011;6454;43.304;24.344;2024-03-06T06:55:01;34.22;;;12.98;;
12780;SDS011;6454;43.304;24.344;2024-03-06T06:57:27;32.65;;;13.30;;
12780;SDS011;6454;43.304;24.344;2024-03-06T06:59:52;29.00;;;12.10;;
12780;SDS011;6454;43.304;24.344;2024-03-06T07:02:18;27.95;;;12.52;;
12780;SDS011;6454;43.304;24.344;2024-03-06T07:04:44;28.90;;;11.95;;
12780;SDS011;6454;43.304;24.344;2024-03-06T07:07:09;29.27;;;12.25;;
12780;SDS011;6454;43.304;24.344;2024-03-06T07:09:35;29.42;;;12.30;;
12780;SDS011;6454;43.304;24.344;2024-03-06T07:12:00;29.55;;;13.25;;
12780;SDS011;6454;43.304;24.344;2024-03-06T07:14:26;29.35;;;12.15;;
12780;SDS011;6454;43.304;24.344;2024-03-06T07:16:51;31.13;;;12.27;;
12780;SDS011;6454;43.304;24.344;2024-03-06T07:19:17;28.20;;;11.50;;
12780;SDS011;6454;43.304;24.344;2024-03-06T07:21:42;29.98;;;12.18;;
12780;SDS011;6454;43.304;24.344;2024-03-06T07:24:08;29.67;;;11.68;;
12780;SDS011;6454;43.304;24.344;2024-03-06T07:26:33;27.75;;;12.63;;
12780;SDS011;6454;43.304;24.344;2024-03-06T07:29:00;35.35;;;16.75;;
12780;SDS011;6454;43.304;24.344;2024-03-06T07:31:26;33.92;;;14.57;;
12780;SDS011;6454;43.304;24.344;2024-03-06T07:33:51;33.72;;;12.63;;
12780;SDS011;6454;43.304;24.344;2024-03-06T07:36:17;28.25;;;12.73;;
12780;SDS011;6454;43.304;24.344;2024-03-06T07:38:43;32.45;;;14.00;;
12780;SDS011;6454;43.304;24.344;2024-03-06T07:41:08;29.65;;;13.32;;
12780;SDS011;6454;43.304;24.344;2024-03-06T07:43:35;35.53;;;14.10;;
12780;SDS011;6454;43.304;24.344;2024-03-06T07:46:00;33.15;;;15.18;;
12780;SDS011;6454;43.304;24.344;2024-03-06T07:48:26;38.65;;;16.38;;
12780;SDS011;6454;43.304;24.344;2024-03-06T07:50:51;42.13;;;17.30;;
12780;SDS011;6454;43.304;24.344;2024-03-06T07:53:17;38.53;;;16.35;;
12780;SDS011;6454;43.304;24.344;2024-03-06T07:55:42;39.28;;;16.98;;
12780;SDS011;6454;43.304;24.344;2024-03-06T07:58:09;38.78;;;16.02;;
12780;SDS011;6454;43.304;24.344;2024-03-06T08:00:34;39.67;;;16.25;;
12780;SDS011;6454;43.304;24.344;2024-03-06T08:02:59;49.60;;;18.30;;
12780;SDS011;6454;43.304;24.344;2024-03-06T08:05:27;55.42;;;20.75;;
12780;SDS011;6454;43.304;24.344;2024-03-06T08:07:53;47.08;;;18.35;;
12780;SDS011;6454;43.304;24.344;2024-03-06T08:10:18;47.47;;;18.48;;
12780;SDS011;6454;43.304;24.344;2024-03-06T08:12:44;54.15;;;19.65;;
12780;SDS011;6454;43.304;24.344;2024-03-06T08:15:11;49.95;;;18.35;;
12780;SDS011;6454;43.304;24.344;2024-03-06T08:17:38;46.90;;;18.15;;
12780;SDS011;6454;43.304;24.344;2024-03-06T08:20:06;45.75;;;17.23;;
12780;SDS011;6454;43.304;24.344;2024-03-06T08:22:35;49.90;;;17.85;;
12780;SDS011;6454;43.304;24.344;2024-03-06T08:25:05;43.67;;;15.57;;
12780;SDS011;6454;43.304;24.344;2024-03-06T08:27:32;49.45;;;17.60;;
12780;SDS011;6454;43.304;24.344;2024-03-06T08:29:58;41.55;;;16.77;;
12780;SDS011;6454;43.304;24.344;2024-03-06T08:32:23;43.75;;;16.30;;
12780;SDS011;6454;43.304;24.344;2024-03-06T08:34:48;43.28;;;17.33;;
12780;SDS011;6454;43.304;24.344;2024-03-06T08:37:14;38.78;;;16.30;;
12780;SDS011;6454;43.304;24.344;2024-03-06T08:39:40;45.88;;;16.50;;
12780;SDS011;6454;43.304;24.344;2024-03-06T08:42:05;37.97;;;16.83;;
12780;SDS011;6454;43.304;24.344;2024-03-06T08:44:31;41.40;;;16.83;;
12780;SDS011;6454;43.304;24.344;2024-03-06T08:46:56;40.17;;;15.38;;
12780;SDS011;6454;43.304;24.344;2024-03-06T08:49:21;42.92;;;16.15;;
12780;SDS011;6454;43.304;24.344;2024-03-06T08:51:47;40.05;;;16.75;;
12780;SDS011;6454;43.304;24.344;2024-03-06T08:54:13;43.03;;;17.40;;
12780;SDS011;6454;43.304;24.344;2024-03-06T08:56:38;36.00;;;16.20;;
12780;SDS011;6454;43.304;24.344;2024-03-06T08:59:03;37.67;;;16.20;;
12780;SDS011;6454;43.304;24.344;2024-03-06T09:01:29;42.75;;;18.15;;
12780;SDS011;6454;43.304;24.344;2024-03-06T09:03:55;43.13;;;17.98;;
12780;SDS011;6454;43.304;24.344;2024-03-06T09:06:22;39.95;;;16.83;;
12780;SDS011;6454;43.304;24.344;2024-03-06T09:08:48;34.67;;;14.50;;
12780;SDS011;6454;43.304;24.344;2024-03-06T09:11:13;31.70;;;14.80;;
12780;SDS011;6454;43.304;24.344;2024-03-06T09:13:39;32.55;;;13.93;;
12780;SDS011;6454;43.304;24.344;2024-03-06T09:16:04;36.22;;;14.98;;
12780;SDS011;6454;43.304;24.344;2024-03-06T09:18:30;32.55;;;14.00;;
12780;SDS011;6454;43.304;24.344;2024-03-06T09:20:56;26.77;;;11.35;;
12780;SDS011;6454;43.304;24.344;2024-03-06T09:23:21;33.83;;;13.52;;
12780;SDS011;6454;43.304;24.344;2024-03-06T09:25:47;29.45;;;12.75;;
12780;SDS011;6454;43.304;24.344;2024-03-06T09:28:14;27.10;;;12.68;;
12780;SDS011;6454;43.304;24.344;2024-03-06T09:30:40;28.23;;;13.63;;
12780;SDS011;6454;43.304;24.344;2024-03-06T09:33:06;37.92;;;16.10;;
12780;SDS011;6454;43.304;24.344;2024-03-06T09:35:32;31.08;;;14.30;;
12780;SDS011;6454;43.304;24.344;2024-03-06T09:37:58;34.40;;;16.35;;
12780;SDS011;6454;43.304;24.344;2024-03-06T09:40:23;30.77;;;14.60;;
12780;SDS011;6454;43.304;24.344;2024-03-06T09:42:49;31.92;;;15.20;;
12780;SDS011;6454;43.304;24.344;2024-03-06T09:45:16;27.83;;;14.13;;
12780;SDS011;6454;43.304;24.344;2024-03-06T09:47:42;25.75;;;12.45;;
12780;SDS011;6454;43.304;24.344;2024-03-06T09:50:09;24.10;;;11.65;;
12780;SDS011;6454;43.304;24.344;2024-03-06T09:52:35;24.58;;;12.38;;
12780;SDS011;6454;43.304;24.344;2024-03-06T09:55:01;32.10;;;14.00;;
12780;SDS011;6454;43.304;24.344;2024-03-06T09:57:28;27.23;;;12.25;;
12780;SDS011;6454;43.304;24.344;2024-03-06T09:59:54;29.58;;;13.40;;
12780;SDS011;6454;43.304;24.344;2024-03-06T10:02:40;33.38;;;17.77;;
12780;SDS011;6454;43.304;24.344;2024-03-06T10:05:22;36.08;;;18.42;;
12780;SDS011;6454;43.304;24.344;2024-03-06T10:07:52;29.05;;;13.30;;
12780;SDS011;6454;43.304;24.344;2024-03-06T10:10:21;28.92;;;13.65;;
12780;SDS011;6454;43.304;24.344;2024-03-06T10:12:50;26.27;;;12.65;;
12780;SDS011;6454;43.304;24.344;2024-03-06T10:15:15;28.30;;;14.10;;
12780;SDS011;6454;43.304;24.344;2024-03-06T10:17:41;29.80;;;12.68;;
12780;SDS011;6454;43.304;24.344;2024-03-06T10:20:19;28.92;;;11.88;;
12780;SDS011;6454;43.304;24.344;2024-03-06T10:22:50;31.45;;;13.27;;
12780;SDS011;6454;43.304;24.344;2024-03-06T10:25:20;32.40;;;14.10;;
12780;SDS011;6454;43.304;24.344;2024-03-06T10:27:46;27.13;;;12.05;;
12780;SDS011;6454;43.304;24.344;2024-03-06T10:30:32;32.42;;;13.70;;
12780;SDS011;6454;43.304;24.344;2024-03-06T10:33:02;30.63;;;13.88;;
12780;SDS011;6454;43.304;24.344;2024-03-06T10:35:28;29.20;;;13.05;;
12780;SDS011;6454;43.304;24.344;2024-03-06T10:37:54;28.55;;;12.35;;
12780;SDS011;6454;43.304;24.344;2024-03-06T10:40:20;27.70;;;12.48;;
12780;SDS011;6454;43.304;24.344;2024-03-06T10:42:45;24.27;;;11.80;;
12780;SDS011;6454;43.304;24.344;2024-03-06T10:45:13;24.80;;;12.13;;
12780;SDS011;6454;43.304;24.344;2024-03-06T10:51:03;23.20;;;11.20;;
12780;SDS011;6454;43.304;24.344;2024-03-06T10:53:30;23.35;;;10.73;;
12780;SDS011;6454;43.304;24.344;2024-03-06T10:55:57;26.75;;;11.82;;
12780;SDS011;6454;43.304;24.344;2024-03-06T10:58:24;23.23;;;10.70;;
12780;SDS011;6454;43.304;24.344;2024-03-06T11:00:53;22.17;;;11.13;;
12780;SDS011;6454;43.304;24.344;2024-03-06T11:03:23;37.20;;;15.65;;
12780;SDS011;6454;43.304;24.344;2024-03-06T11:05:51;27.15;;;12.23;;
12780;SDS011;6454;43.304;24.344;2024-03-06T11:08:16;23.88;;;11.90;;
12780;SDS011;6454;43.304;24.344;2024-03-06T11:10:43;23.73;;;11.63;;
12780;SDS011;6454;43.304;24.344;2024-03-06T11:13:30;31.73;;;15.48;;
12780;SDS011;6454;43.304;24.344;2024-03-06T11:15:58;25.75;;;12.15;;
12780;SDS011;6454;43.304;24.344;2024-03-06T11:23:28;31.60;;;16.58;;
12780;SDS011;6454;43.304;24.344;2024-03-06T11:26:01;28.60;;;14.23;;
12780;SDS011;6454;43.304;24.344;2024-03-06T11:28:29;30.08;;;15.13;;
12780;SDS011;6454;43.304;24.344;2024-03-06T11:33:39;25.88;;;14.05;;
12780;SDS011;6454;43.304;24.344;2024-03-06T11:38:46;23.33;;;13.38;;
12780;SDS011;6454;43.304;24.344;2024-03-06T11:41:27;27.90;;;13.90;;
12780;SDS011;6454;43.304;24.344;2024-03-06T11:43:55;26.00;;;12.57;;
12780;SDS011;6454;43.304;24.344;2024-03-06T11:46:21;26.27;;;12.77;;
12780;SDS011;6454;43.304;24.344;2024-03-06T11:48:51;25.95;;;12.35;;
12780;SDS011;6454;43.304;24.344;2024-03-06T11:51:19;28.67;;;15.60;;
12780;SDS011;6454;43.304;24.344;2024-03-06T11:53:45;21.88;;;11.45;;
12780;SDS011;6454;43.304;24.344;2024-03-06T11:56:11;18.45;;;10.35;;
12780;SDS011;6454;43.304;24.344;2024-03-06T11:58:36;23.25;;;10.50;;
12780;SDS011;6454;43.304;24.344;2024-03-06T12:04:24;20.73;;;10.27;;
12780;SDS011;6454;43.304;24.344;2024-03-06T12:06:50;19.52;;;9.57;;
12780;SDS011;6454;43.304;24.344;2024-03-06T12:09:16;22.38;;;10.20;;
12780;SDS011;6454;43.304;24.344;2024-03-06T12:11:42;21.40;;;11.50;;
12780;SDS011;6454;43.304;24.344;2024-03-06T12:14:14;22.80;;;12.00;;
12780;SDS011;6454;43.304;24.344;2024-03-06T12:16:41;23.35;;;11.52;;
12780;SDS011;6454;43.304;24.344;2024-03-06T12:19:08;22.33;;;11.82;;
12780;SDS011;6454;43.304;24.344;2024-03-06T12:21:35;23.95;;;11.55;;
12780;SDS011;6454;43.304;24.344;2024-03-06T12:24:04;24.75;;;12.40;;
12780;SDS011;6454;43.304;24.344;2024-03-06T12:26:30;26.95;;;12.88;;
12780;SDS011;6454;43.304;24.344;2024-03-06T12:31:32;18.55;;;10.20;;
12780;SDS011;6454;43.304;24.344;2024-03-06T12:33:59;23.20;;;11.88;;
12780;SDS011;6454;43.304;24.344;2024-03-06T12:36:25;23.90;;;11.55;;
12780;SDS011;6454;43.304;24.344;2024-03-06T12:38:54;24.85;;;12.77;;
12780;SDS011;6454;43.304;24.344;2024-03-06T12:41:20;21.55;;;12.10;;
12780;SDS011;6454;43.304;24.344;2024-03-06T12:43:46;20.33;;;11.75;;
12780;SDS011;6454;43.304;24.344;2024-03-06T12:46:11;27.23;;;12.25;;
12780;SDS011;6454;43.304;24.344;2024-03-06T12:48:37;21.30;;;11.68;;
12780;SDS011;6454;43.304;24.344;2024-03-06T12:51:02;22.48;;;12.23;;
12780;SDS011;6454;43.304;24.344;2024-03-06T12:53:30;21.17;;;10.85;;
12780;SDS011;6454;43.304;24.344;2024-03-06T12:55:57;22.17;;;11.70;;
12780;SDS011;6454;43.304;24.344;2024-03-06T12:58:22;30.58;;;13.27;;
12780;SDS011;6454;43.304;24.344;2024-03-06T13:00:48;26.67;;;12.90;;
12780;SDS011;6454;43.304;24.344;2024-03-06T13:03:13;21.65;;;10.48;;
12780;SDS011;6454;43.304;24.344;2024-03-06T13:05:39;23.17;;;10.77;;
12780;SDS011;6454;43.304;24.344;2024-03-06T13:08:05;20.13;;;10.80;;
12780;SDS011;6454;43.304;24.344;2024-03-06T13:10:30;21.25;;;11.15;;
12780;SDS011;6454;43.304;24.344;2024-03-06T13:12:56;24.35;;;11.25;;
12780;SDS011;6454;43.304;24.344;2024-03-06T13:15:22;24.05;;;11.38;;
12780;SDS011;6454;43.304;24.344;2024-03-06T13:17:47;21.48;;;11.50;;
12780;SDS011;6454;43.304;24.344;2024-03-06T13:20:13;20.00;;;10.55;;
12780;SDS011;6454;43.304;24.344;2024-03-06T13:22:39;20.17;;;10.55;;
12780;SDS011;6454;43.304;24.344;2024-03-06T13:25:05;18.23;;;10.95;;
12780;SDS011;6454;43.304;24.344;2024-03-06T13:27:31;20.38;;;10.88;;
12780;SDS011;6454;43.304;24.344;2024-03-06T13:29:57;23.55;;;11.25;;
12780;SDS011;6454;43.304;24.344;2024-03-06T13:32:23;27.85;;;11.32;;
12780;SDS011;6454;43.304;24.344;2024-03-06T13:34:48;23.70;;;12.13;;
12780;SDS011;6454;43.304;24.344;2024-03-06T13:37:14;21.67;;;11.48;;
12780;SDS011;6454;43.304;24.344;2024-03-06T13:39:40;22.42;;;10.85;;
12780;SDS011;6454;43.304;24.344;2024-03-06T13:42:05;20.80;;;10.82;;
12780;SDS011;6454;43.304;24.344;2024-03-06T13:44:33;27.40;;;10.73;;
12780;SDS011;6454;43.304;24.344;2024-03-06T13:47:00;23.05;;;11.60;;
12780;SDS011;6454;43.304;24.344;2024-03-06T13:52:04;21.80;;;11.70;;
12780;SDS011;6454;43.304;24.344;2024-03-06T13:54:32;28.25;;;13.23;;
12780;SDS011;6454;43.304;24.344;2024-03-06T13:57:06;23.55;;;12.68;;
12780;SDS011;6454;43.304;24.344;2024-03-06T13:59:32;24.20;;;13.25;;
12780;SDS011;6454;43.304;24.344;2024-03-06T14:01:59;24.48;;;12.60;;
12780;SDS011;6454;43.304;24.344;2024-03-06T14:04:25;26.25;;;13.43;;
12780;SDS011;6454;43.304;24.344;2024-03-06T14:06:51;30.95;;;14.95;;
12780;SDS011;6454;43.304;24.344;2024-03-06T14:09:17;26.10;;;13.85;;
12780;SDS011;6454;43.304;24.344;2024-03-06T14:11:42;27.40;;;13.70;;
12780;SDS011;6454;43.304;24.344;2024-03-06T14:14:07;25.65;;;12.27;;
12780;SDS011;6454;43.304;24.344;2024-03-06T14:16:36;27.48;;;14.40;;
12780;SDS011;6454;43.304;24.344;2024-03-06T14:21:30;23.73;;;13.07;;
12780;SDS011;6454;43.304;24.344;2024-03-06T14:23:58;29.05;;;14.57;;
12780;SDS011;6454;43.304;24.344;2024-03-06T14:26:24;27.48;;;13.85;;
12780;SDS011;6454;43.304;24.344;2024-03-06T14:28:51;27.05;;;13.90;;
12780;SDS011;6454;43.304;24.344;2024-03-06T14:31:17;27.73;;;13.65;;
12780;SDS011;6454;43.304;24.344;2024-03-06T14:33:42;21.20;;;11.15;;
12780;SDS011;6454;43.304;24.344;2024-03-06T14:36:08;25.88;;;12.65;;
12780;SDS011;6454;43.304;24.344;2024-03-06T14:38:34;26.75;;;12.32;;
12780;SDS011;6454;43.304;24.344;2024-03-06T14:40:59;26.35;;;12.68;;
12780;SDS011;6454;43.304;24.344;2024-03-06T14:43:25;24.63;;;12.25;;